Date,TemperatureHighF,TemperatureAvgF,TemperatureLowF,DewpointHighF,DewpointAvgF,DewpointLowF,HumidityHigh,HumidityAvg,HumidityLow,PressureMaxIn,PressureMinIn,WindSpeedMaxMPH,WindSpeedAvgMPH,GustSpeedMaxMPH,PrecipitationSumIn
2013-1-1,77.1,62.9,50.1,65.0,57.2,50.0,100,83,58,30.21,30.04,6,1,12,0.00
2013-1-2,81.4,67.5,53.7,70.0,62.6,53.0,100,86,59,30.07,29.98,4,1,10,0.00
2013-1-3,77.9,65.7,57.3,69.0,63.8,57.0,100,94,63,30.16,30.02,7,2,11,0.07
2013-1-4,61.8,57.9,55.2,59.0,57.1,55.0,100,97,91,30.27,30.14,8,3,11,0.00
2013-1-5,75.7,63.8,54.0,64.0,59.1,53.0,99,85,66,30.30,30.18,5,2,11,0.00
2013-1-6,80.8,68.3,62.7,71.0,66.3,62.0,100,94,70,30.20,30.05,7,1,10,0.34
2013-1-7,68.0,62.7,58.1,67.0,59.9,55.0,99,90,76,30.22,30.11,10,3,13,0.00
2013-1-8,81.8,69.4,59.0,71.0,65.6,59.0,100,89,63,30.22,30.12,6,1,8,0.00
2013-1-9,83.9,74.5,68.3,72.0,69.4,67.0,100,86,58,30.29,30.18,10,2,12,0.00
2013-1-10,82.3,73.3,63.9,71.0,67.3,62.0,99,83,59,30.30,30.20,11,3,16,0.00
2013-1-11,82.1,70.2,61.0,71.0,65.9,61.0,100,87,63,30.26,30.14,8,2,13,0.00
2013-1-12,81.8,69.6,58.8,70.0,64.2,59.0,100,85,56,30.19,30.08,11,2,11,0.01
2013-1-13,82.1,70.0,57.6,69.0,64.1,58.0,100,83,55,30.16,30.06,6,1,9,0.00
2013-1-14,82.0,68.6,59.9,69.0,62.7,60.0,100,83,55,30.19,30.10,8,1,9,0.01
2013-1-15,82.3,68.6,57.6,71.0,63.5,58.0,100,85,59,30.15,30.05,6,1,11,0.00
2013-1-16,82.2,69.6,61.2,69.0,62.5,59.0,100,81,48,30.11,29.99,5,1,10,0.00
2013-1-17,76.8,62.8,52.9,71.0,59.1,46.0,100,88,72,30.12,29.99,14,4,20,0.01
2013-1-18,63.5,52.1,39.9,59.0,47.2,35.0,99,84,72,30.29,30.12,19,5,19,0.02
2013-1-19,73.9,63.5,53.6,63.0,57.7,50.0,92,82,67,30.27,30.13,9,3,14,0.00
2013-1-20,75.6,64.5,58.7,65.0,60.6,57.0,98,87,67,30.17,30.03,9,2,10,0.00
2013-1-21,73.5,64.9,59.7,66.0,59.5,55.0,92,83,70,30.09,29.99,6,1,12,0.00
2013-1-22,65.5,57.7,44.1,55.0,44.1,37.0,86,63,36,30.27,30.06,10,3,15,0.00
2013-1-23,68.8,53.6,42.2,42.0,38.2,33.0,95,61,28,30.36,30.26,11,2,11,0.00
2013-1-24,72.2,56.0,40.4,52.0,47.0,40.0,99,75,42,30.34,30.22,7,2,10,0.00
2013-1-25,75.8,59.5,45.9,58.0,50.4,46.0,100,76,41,30.32,30.17,5,1,9,0.00
2013-1-26,74.9,59.6,45.2,60.0,52.6,45.0,100,80,50,30.28,30.16,7,1,11,0.01
2013-1-27,78.6,62.6,48.0,63.0,55.5,48.0,100,81,47,30.31,30.21,8,1,10,0.00
2013-1-28,78.3,66.7,55.6,67.0,62.9,55.0,100,88,68,30.33,30.21,7,1,11,0.00
2013-1-29,82.7,71.5,64.0,71.0,66.5,64.0,100,86,56,30.24,30.08,8,3,14,0.00
2013-1-30,84.7,71.8,62.6,68.0,65.6,62.0,100,82,55,30.11,29.91,13,4,20,0.00
2013-1-31,68.8,56.7,37.5,67.0,44.8,31.0,98,69,30,30.23,29.91,11,4,22,0.08
2013-2-1,96.3,54.6,36.2,47.0,37.3,33.0,92,62,15,30.36,30.22,0,0,0,0.00
2013-2-2,98.5,55.3,31.9,62.0,43.3,30.0,100,74,19,30.31,30.14,0,0,4,0.00
2013-2-3,71.2,55.6,41.3,51.0,44.8,37.0,93,70,45,30.20,30.07,12,2,17,0.00
2013-2-4,71.7,54.5,39.1,51.0,40.5,36.0,99,66,29,30.15,30.04,8,1,10,0.00
2013-2-5,78.1,59.1,40.5,54.0,47.0,37.0,97,68,40,30.10,30.00,8,1,11,0.00
2013-2-6,79.1,67.3,55.9,63.0,57.6,52.0,91,73,52,30.12,30.02,7,1,9,0.00
2013-2-7,82.1,69.8,57.7,66.0,62.5,57.0,99,80,50,30.07,29.87,10,3,15,0.01
2013-2-8,80.5,68.7,57.0,66.0,60.5,55.0,96,78,43,30.09,29.88,9,4,14,0.00
2013-2-9,76.3,62.8,52.9,58.0,54.9,52.0,99,78,45,30.20,30.07,10,2,11,0.01
2013-2-10,79.0,67.0,55.4,63.0,58.7,54.0,95,76,53,30.26,30.14,11,3,17,0.00
2013-2-11,83.0,68.5,54.7,66.0,61.3,55.0,100,80,50,30.21,30.06,8,2,14,0.00
2013-2-12,85.1,72.2,62.4,70.0,65.9,62.0,99,83,52,30.10,29.94,7,2,13,0.00
2013-2-13,86.1,73.6,63.0,72.0,67.7,57.0,98,83,57,29.99,29.84,11,4,25,0.17
2013-2-14,64.4,61.4,59.2,62.0,59.3,57.0,99,93,82,30.04,29.92,8,1,10,0.57
2013-2-15,69.8,58.8,54.9,60.0,56.3,52.0,100,92,70,30.08,29.95,6,1,8,0.10
2013-2-16,67.7,56.0,49.0,52.0,46.4,32.0,99,73,47,30.12,29.93,15,4,24,0.00
2013-2-17,54.5,44.5,34.0,31.0,22.0,16.0,77,43,23,30.35,30.14,18,4,23,0.00
2013-2-18,68.6,49.7,29.7,49.0,38.5,28.0,97,69,43,30.37,30.22,10,2,15,0.00
2013-2-19,78.9,61.8,45.1,61.0,52.8,44.0,99,76,45,30.23,30.08,10,2,15,0.00
2013-2-20,77.5,66.6,57.1,65.0,61.2,56.0,100,84,63,30.13,30.00,4,1,8,0.00
2013-2-21,84.5,69.1,55.2,66.0,60.7,54.0,98,77,47,30.11,29.98,7,1,9,0.00
2013-2-22,87.7,72.9,58.8,70.0,65.1,59.0,100,79,45,30.08,29.98,11,2,14,0.00
2013-2-23,87.8,75.3,67.9,72.0,68.8,67.0,99,82,53,30.02,29.88,8,2,14,0.00
2013-2-24,85.3,73.0,67.4,72.0,69.1,67.0,99,89,60,29.96,29.87,8,2,12,0.00
2013-2-25,87.1,74.6,65.9,72.0,67.2,66.0,100,80,51,29.92,29.77,12,2,14,0.02
2013-2-26,76.8,70.7,63.1,74.0,68.5,62.0,99,92,81,29.88,29.73,14,3,20,0.27
2013-2-27,76.1,64.8,56.0,62.0,57.8,51.0,99,80,51,29.98,29.87,9,2,11,0.01
2013-2-28,74.0,61.3,50.1,56.0,51.7,48.0,97,73,45,30.01,29.90,10,2,16,0.00
2013-3-1,62.7,54.5,47.5,50.0,42.6,37.0,93,66,44,30.02,29.92,9,3,15,0.00
2013-3-2,57.9,49.7,40.2,43.0,38.1,34.0,95,66,46,30.07,29.98,12,4,23,0.00
2013-3-3,53.6,44.8,36.3,40.0,33.8,31.0,87,66,51,30.18,30.00,16,4,20,0.00
2013-3-4,67.4,48.6,32.5,38.0,32.1,26.0,97,60,25,30.25,30.13,9,1,13,0.00
2013-3-5,76.8,59.1,40.4,58.0,48.6,35.0,98,71,40,30.18,30.04,7,2,13,0.00
2013-3-6,65.3,57.7,46.5,62.0,43.9,31.0,95,64,28,30.14,29.95,15,5,22,0.00
2013-3-7,68.0,53.0,41.0,42.0,37.3,33.0,87,58,35,30.23,30.12,13,4,15,0.00
2013-3-8,75.9,56.6,37.8,48.0,40.5,35.0,99,63,23,30.24,30.11,9,1,12,0.00
2013-3-9,75.9,60.1,45.0,56.0,49.2,44.0,99,72,39,30.23,30.14,7,1,10,0.00
2013-3-10,78.5,65.5,50.3,58.0,55.2,49.0,99,72,46,30.17,30.05,14,3,20,0.00
2013-3-11,79.5,66.6,52.4,61.0,57.7,52.0,99,76,50,30.11,29.91,12,2,19,0.00
2013-3-12,69.8,64.6,54.5,68.0,61.4,52.0,99,89,78,30.04,29.88,11,3,15,0.47
2013-3-13,74.4,61.4,52.2,52.0,43.3,36.0,95,57,25,30.18,30.04,13,5,20,0.00
2013-3-14,68.1,55.4,45.5,47.0,35.6,28.0,91,52,23,30.27,30.16,10,4,16,0.00
2013-3-15,72.5,54.4,36.8,48.0,39.4,33.0,99,64,30,30.30,30.15,7,1,11,0.00
2013-3-16,80.2,60.0,41.3,54.0,46.3,40.0,98,66,28,30.20,30.05,5,1,10,0.00
2013-3-17,78.8,63.4,46.4,59.0,54.3,46.0,99,76,46,30.15,30.00,8,1,15,0.00
2013-3-18,78.5,68.6,60.8,68.0,63.2,57.0,93,83,64,30.05,29.87,10,2,19,0.00
2013-3-19,85.9,71.6,61.8,68.0,64.0,61.0,100,80,49,30.01,29.89,5,1,10,0.00
2013-3-20,75.5,67.5,57.9,67.0,62.3,57.0,97,84,61,29.96,29.80,13,2,16,0.01
2013-3-21,71.2,59.6,47.4,58.0,41.0,28.0,97,56,23,29.99,29.87,9,3,14,0.01
2013-3-22,78.7,59.9,40.9,67.0,52.3,36.0,100,79,43,30.02,29.90,9,1,15,1.37
2013-3-23,87.4,73.0,62.1,76.0,68.1,62.0,100,87,57,30.00,29.79,9,2,16,0.04
2013-3-24,82.1,75.1,70.2,74.0,71.4,68.0,97,88,74,29.84,29.64,12,3,17,0.00
2013-3-25,70.0,63.6,52.7,68.0,47.2,30.0,95,61,24,30.04,29.73,15,5,20,0.00
2013-3-26,57.4,51.5,44.5,45.0,34.1,28.0,76,53,35,30.25,30.04,15,6,24,0.00
2013-3-27,63.0,49.6,37.5,39.0,33.8,29.0,81,58,30,30.33,30.21,12,3,14,0.00
2013-3-28,71.6,54.1,35.9,42.0,36.1,31.0,97,58,22,30.31,30.19,10,2,11,0.00
2013-3-29,75.2,58.7,40.7,50.0,40.2,35.0,99,57,25,30.34,30.20,8,1,10,0.00
2013-3-30,79.6,62.1,46.0,56.0,49.0,43.0,99,67,36,30.27,30.12,7,2,13,0.00
2013-3-31,82.9,69.5,54.1,60.0,55.7,48.0,90,65,36,30.18,30.01,8,2,18,0.00
2013-4-1,83.5,71.9,61.6,68.0,63.6,60.0,98,77,54,30.04,29.95,10,2,16,0.00
2013-4-2,85.6,72.0,61.3,66.0,61.7,57.0,100,74,39,30.09,30.00,8,1,12,0.00
2013-4-3,86.8,72.4,61.8,69.0,64.5,60.0,97,79,48,30.09,29.94,8,2,16,0.04
2013-4-4,70.7,68.6,65.7,69.0,67.0,64.0,98,94,83,30.03,29.86,11,2,14,0.50
2013-4-5,75.5,67.5,60.7,70.0,62.4,57.0,98,84,57,29.98,29.82,12,3,16,0.09
2013-4-6,79.4,66.4,55.1,61.0,57.2,53.0,96,74,48,30.12,29.99,10,3,13,0.00
2013-4-7,82.7,71.2,57.5,64.0,59.6,56.0,99,70,41,30.16,30.05,7,2,11,0.00
2013-4-8,83.7,71.3,58.1,66.0,60.6,57.0,100,72,41,30.14,30.04,10,2,11,0.00
2013-4-9,83.5,70.8,59.0,70.0,63.4,59.0,100,79,55,30.17,30.08,10,2,15,0.00
2013-4-10,89.2,73.8,57.2,71.0,64.3,57.0,100,75,44,30.13,29.96,8,1,13,0.00
2013-4-11,89.3,77.3,70.9,74.0,71.6,69.0,97,84,56,30.01,29.83,17,4,19,0.04
2013-4-12,84.3,77.1,72.9,76.0,72.7,71.0,97,87,71,29.91,29.79,10,3,21,0.00
2013-4-13,86.6,76.7,67.6,72.0,68.4,64.0,99,77,55,29.97,29.88,6,1,9,0.00
2013-4-14,90.4,77.2,67.9,75.0,69.7,62.0,92,79,58,30.00,29.82,17,2,29,0.00
2013-4-15,89.9,76.7,64.5,73.0,66.6,62.0,91,73,49,30.07,29.93,7,2,11,0.00
2013-4-16,91.3,78.1,66.8,75.0,70.1,66.0,99,78,51,30.14,30.02,10,2,14,0.00
2013-4-17,88.0,75.4,62.3,70.0,65.9,62.0,100,75,46,30.13,30.01,9,2,13,0.00
2013-4-18,89.2,77.4,65.2,73.0,68.3,65.0,99,76,49,30.05,29.93,10,2,12,1.31
2013-4-19,89.3,78.2,69.1,76.0,71.2,68.0,100,81,53,30.02,29.92,14,2,19,0.08
2013-4-20,74.3,69.1,60.8,73.0,65.4,58.0,99,88,75,30.15,29.97,10,4,14,0.01
2013-4-21,81.4,69.1,59.4,72.0,65.5,58.0,98,89,72,30.14,30.01,8,2,9,0.11
2013-4-22,79.7,70.8,65.8,70.0,67.6,64.0,100,90,69,30.09,29.97,10,3,16,0.15
2013-4-23,83.5,72.4,64.4,67.0,63.9,60.0,97,76,51,30.11,30.01,11,3,15,0.00
2013-4-24,86.1,72.2,56.2,66.0,61.3,56.0,100,72,41,30.15,30.06,6,1,11,0.00
2013-4-25,88.4,74.8,60.3,68.0,63.1,60.0,99,70,40,30.22,30.10,6,1,8,0.00
2013-4-26,88.5,75.5,61.4,67.0,64.2,61.0,98,70,45,30.24,30.14,7,2,11,0.00
2013-4-27,84.8,74.5,64.2,72.0,66.6,64.0,100,79,52,30.23,30.09,10,2,12,0.00
2013-4-28,88.0,75.4,63.0,67.0,63.6,59.0,98,70,40,30.14,29.97,14,3,16,0.00
2013-4-29,89.8,75.6,64.3,69.0,65.9,62.0,95,74,44,30.04,29.89,7,2,12,0.00
2013-4-30,89.3,73.9,63.9,74.0,67.7,63.0,100,83,45,30.01,29.88,8,2,26,1.06
2013-5-1,77.1,70.8,66.0,73.0,69.6,66.0,100,96,85,30.00,29.92,5,1,14,0.70
2013-5-2,77.8,70.2,63.4,72.0,68.2,63.0,100,93,81,29.96,29.82,5,1,10,0.34
2013-5-3,83.9,71.7,66.0,73.0,68.3,66.0,100,90,60,29.84,29.70,7,2,18,0.02
2013-5-4,82.8,73.4,66.9,70.0,67.7,66.0,98,83,60,29.81,29.67,9,3,17,0.00
2013-5-5,77.2,68.6,61.7,67.0,55.9,48.0,99,67,38,29.95,29.77,11,4,19,0.00
2013-5-6,78.8,68.4,58.6,61.0,57.1,52.0,93,70,41,30.02,29.90,10,2,15,0.00
2013-5-7,80.3,66.9,53.3,65.0,57.2,52.0,99,74,47,30.06,29.98,9,2,13,0.00
2013-5-8,83.1,70.6,59.1,64.0,60.3,58.0,97,72,45,30.14,30.03,7,2,12,0.00
2013-5-9,86.7,72.1,57.2,66.0,61.1,57.0,100,72,39,30.16,30.07,7,1,10,0.00
2013-5-10,93.2,78.0,63.3,74.0,67.5,60.0,98,73,42,30.15,29.99,10,2,12,0.00
2013-5-11,89.2,76.5,67.7,78.0,71.2,67.0,100,85,61,30.07,29.98,8,2,19,0.38
2013-5-12,88.8,77.4,68.3,75.0,70.3,66.0,100,80,56,30.05,29.94,11,2,14,0.00
2013-5-13,83.8,73.0,62.9,68.0,61.5,50.0,98,71,37,30.14,30.01,10,3,13,0.00
2013-5-14,83.9,70.0,53.7,61.0,54.4,48.0,98,63,30,30.21,30.11,9,2,10,0.00
2013-5-15,86.0,71.7,57.0,65.0,59.7,57.0,100,70,42,30.21,30.08,5,1,10,0.00
2013-5-16,87.6,74.4,59.9,65.0,61.6,59.0,99,68,38,30.13,30.01,7,2,14,0.00
2013-5-17,89.3,76.4,62.1,69.0,64.0,59.0,98,69,36,30.10,30.02,8,2,14,0.00
2013-5-18,93.4,79.4,66.2,74.0,67.8,61.0,99,72,36,30.11,30.00,7,1,13,0.00
2013-5-19,94.1,79.4,68.5,75.0,70.3,65.0,98,77,42,30.10,29.96,6,1,16,0.03
2013-5-20,91.5,76.3,67.2,74.0,69.9,66.0,99,83,46,30.09,29.95,8,2,21,0.35
2013-5-21,88.0,72.9,66.2,74.0,69.6,66.0,100,91,57,30.03,29.95,6,1,15,0.52
2013-5-22,88.9,75.0,66.5,76.0,71.2,67.0,100,89,56,29.97,29.88,9,1,12,0.07
2013-5-23,91.9,78.8,68.0,75.0,71.5,68.0,100,80,51,30.01,29.92,7,1,10,0.01
2013-5-24,93.6,80.4,69.3,76.0,68.5,58.0,100,72,32,30.09,29.98,11,1,13,0.00
2013-5-25,88.9,78.3,67.0,73.0,66.3,62.0,99,69,46,30.19,30.07,8,2,14,0.00
2013-5-26,86.8,74.2,58.7,65.0,61.0,56.0,99,66,37,30.22,30.12,7,2,13,0.00
2013-5-27,89.0,75.1,60.5,68.0,64.0,60.0,99,72,43,30.19,30.08,10,2,13,0.00
2013-5-28,89.7,75.3,66.0,74.0,70.5,66.0,99,86,56,30.16,30.05,11,2,22,0.56
2013-5-29,83.7,75.8,70.9,76.0,72.6,70.0,99,90,71,30.12,30.05,10,2,19,0.14
2013-5-30,84.8,77.4,72.3,76.0,72.5,70.0,98,85,68,30.10,30.02,15,3,20,0.56
2013-5-31,87.5,79.1,72.2,75.0,71.9,69.0,91,79,62,30.10,30.00,8,3,15,0.00
2013-6-1,91.1,78.5,73.0,78.0,73.9,72.0,98,86,63,30.07,29.95,7,2,17,0.04
2013-6-2,91.8,79.4,71.9,78.0,74.5,72.0,100,86,57,30.02,29.88,5,1,10,0.13
2013-6-3,87.7,77.4,72.9,77.0,74.5,72.0,100,91,68,30.01,29.91,4,1,8,0.03
2013-6-4,85.7,76.4,71.1,75.0,72.9,70.0,99,90,66,30.03,29.95,10,1,14,0.40
2013-6-5,82.8,76.3,72.2,79.0,74.4,72.0,99,94,75,30.02,29.91,7,1,8,0.19
2013-6-6,77.6,74.6,71.8,77.0,74.0,72.0,100,98,90,29.91,29.68,12,4,22,3.21
2013-6-7,88.0,78.7,71.5,77.0,74.0,71.0,100,86,66,29.97,29.79,6,1,11,0.00
2013-6-8,89.4,76.6,71.5,79.0,73.7,71.0,100,91,66,30.11,29.97,6,1,12,1.39
2013-6-9,91.3,80.1,70.0,79.0,74.4,70.0,100,84,56,30.10,30.01,8,2,14,0.00
2013-6-10,91.5,80.4,71.4,78.0,74.6,71.0,100,84,58,30.10,29.98,8,1,12,0.07
2013-6-11,90.4,78.9,73.0,80.0,74.3,71.0,100,87,56,30.09,29.99,7,1,18,0.01
2013-6-12,92.9,79.3,69.3,78.0,72.7,69.0,100,82,53,30.08,30.00,14,1,29,0.21
2013-6-13,93.4,80.8,70.4,78.0,74.1,70.0,99,81,56,30.05,29.91,16,1,16,0.00
2013-6-14,90.0,81.7,73.7,77.0,74.0,70.0,98,79,56,29.96,29.86,8,2,13,0.00
2013-6-15,90.9,79.8,74.5,79.0,75.9,73.0,99,88,66,30.07,29.92,7,1,12,0.07
2013-6-16,93.8,82.6,75.7,78.0,76.0,73.0,97,82,54,30.09,30.00,9,2,9,0.08
2013-6-17,95.9,83.8,74.4,79.0,75.7,73.0,100,79,51,30.09,29.96,5,1,9,0.01
2013-6-18,96.2,82.9,72.9,81.0,74.8,71.0,97,78,50,30.09,29.96,7,1,12,0.09
2013-6-19,92.1,81.6,73.5,79.0,74.6,72.0,97,80,59,30.05,29.96,8,2,16,0.00
2013-6-20,91.8,79.9,72.0,76.0,72.7,68.0,96,80,52,30.09,29.99,9,1,19,0.01
2013-6-21,89.7,76.3,69.3,76.0,72.2,69.0,99,88,61,30.11,30.04,8,1,12,0.25
2013-6-22,92.3,79.4,70.2,78.0,72.5,69.0,100,82,48,30.12,30.04,8,2,14,0.00
2013-6-23,91.2,78.5,70.8,78.0,74.0,71.0,100,87,53,30.15,30.06,6,1,20,0.34
2013-6-24,93.3,81.7,73.5,78.0,74.7,72.0,99,81,50,30.18,30.06,5,2,11,0.27
2013-6-25,92.7,82.3,72.4,79.0,74.0,71.0,100,78,52,30.16,30.02,7,1,11,0.01
2013-6-26,92.0,79.2,71.0,77.0,74.0,70.0,99,86,57,30.10,29.99,14,1,23,0.69
2013-6-27,94.0,80.9,70.6,77.0,73.0,70.0,100,79,51,30.07,29.94,6,0,11,0.00
2013-6-28,93.5,80.0,73.5,79.0,74.7,71.0,97,84,58,29.99,29.85,8,1,14,0.01
2013-6-29,89.2,79.0,73.9,79.0,75.4,70.0,99,89,66,29.89,29.81,9,1,18,0.14
2013-6-30,87.3,76.1,73.1,79.0,74.1,72.0,98,94,77,29.89,29.82,7,1,15,0.91
2013-7-1,81.9,74.8,71.8,77.0,73.3,71.0,99,95,84,30.02,29.86,8,2,14,0.52
2013-7-2,85.1,75.3,71.9,78.0,73.6,71.0,100,95,76,30.10,29.97,8,2,22,0.56
2013-7-3,89.6,76.8,72.0,79.0,74.3,72.0,100,93,66,30.14,30.04,11,2,18,0.37
2013-7-4,88.4,76.9,71.0,79.0,73.9,71.0,99,91,68,30.16,30.06,8,2,15,0.42
2013-7-5,89.2,77.4,70.5,78.0,74.5,70.0,100,91,67,30.16,30.06,14,2,22,0.18
2013-7-6,91.4,80.1,73.7,77.0,74.4,73.0,98,84,55,30.12,30.03,9,2,15,0.01
2013-7-7,91.5,82.6,73.4,78.0,75.1,73.0,98,79,55,30.14,30.03,12,2,15,0.00
2013-7-8,92.8,81.8,73.1,78.0,75.0,72.0,99,81,53,30.16,30.07,9,2,11,0.00
2013-7-9,93.7,80.9,71.6,77.0,73.8,71.0,100,80,48,30.17,30.06,7,1,11,0.00
2013-7-10,91.7,79.8,71.6,77.0,73.3,71.0,99,82,53,30.10,29.96,7,1,12,0.11
2013-7-11,90.6,78.0,71.8,78.0,73.8,71.0,99,88,58,30.05,29.93,8,1,10,0.08
2013-7-12,89.5,78.2,72.3,79.0,74.3,72.0,99,88,66,29.96,29.90,5,0,9,0.05
2013-7-13,88.5,76.6,70.9,78.0,73.7,71.0,100,91,65,30.00,29.91,10,1,10,0.90
2013-7-14,88.9,75.7,70.9,78.0,73.4,70.0,99,93,70,30.09,29.97,6,1,9,0.11
2013-7-15,87.2,77.9,70.5,76.0,73.3,70.0,100,87,61,30.11,30.02,8,2,10,0.01
2013-7-16,89.4,76.9,73.0,77.0,73.6,71.0,99,91,61,30.15,30.08,10,1,20,0.20
2013-7-17,90.6,78.0,72.7,79.0,74.1,71.0,99,88,63,30.16,30.07,10,1,12,0.07
2013-7-18,88.9,76.5,70.1,77.0,73.1,70.0,99,90,63,30.11,30.04,0,0,0,0.23
2013-7-19,90.5,76.1,70.0,77.0,72.9,70.0,100,91,61,30.13,30.03,12,0,12,2.71
2013-7-20,91.4,76.6,70.5,81.0,74.2,70.0,100,93,64,30.12,30.02,14,1,21,0.41
2013-7-21,92.9,79.2,70.9,82.0,75.2,71.0,100,88,63,30.14,30.02,8,1,17,0.01
2013-7-22,94.0,78.4,73.3,80.0,75.0,73.0,98,90,59,30.13,30.06,10,1,19,0.47
2013-7-23,90.1,78.2,73.6,81.0,75.3,72.0,100,91,64,30.10,29.97,6,1,14,0.06
2013-7-24,89.5,80.3,74.4,80.0,76.4,74.0,98,89,65,30.01,29.89,6,1,15,0.20
2013-7-25,89.4,79.4,72.0,81.0,75.7,71.0,99,89,68,29.99,29.88,7,1,15,1.41
2013-7-26,91.9,81.0,74.4,79.0,75.6,74.0,99,85,60,30.01,29.94,8,2,14,0.00
2013-7-27,92.5,82.4,73.6,79.0,75.1,72.0,98,80,56,30.00,29.90,7,2,11,0.00
2013-7-28,92.6,79.2,73.6,79.0,74.6,73.0,99,87,55,30.07,29.94,3,0,11,0.09
2013-7-29,94.0,80.1,70.8,79.0,73.5,71.0,99,82,50,30.16,30.02,8,1,20,0.02
2013-7-30,95.0,81.8,72.9,79.0,74.8,72.0,99,81,48,30.17,30.07,9,1,14,0.00
2013-7-31,95.2,80.9,73.6,80.0,75.2,72.0,99,84,54,30.14,30.00,11,1,18,0.03
2013-8-1,94.8,80.8,72.3,78.0,74.1,72.0,99,82,49,30.07,29.93,8,1,11,1.75
2013-8-2,91.3,78.7,72.2,80.0,74.8,72.0,100,89,61,30.05,29.94,7,1,16,1.06
2013-8-3,92.3,78.1,72.0,80.0,75.1,71.0,99,92,61,30.11,30.01,10,1,19,2.18
2013-8-4,92.2,80.5,74.3,82.0,77.0,74.0,100,90,67,30.10,29.99,9,0,12,0.02
2013-8-5,93.4,81.8,76.4,82.0,77.1,73.0,97,86,67,30.03,29.92,9,1,18,0.13
2013-8-6,93.9,81.5,73.9,81.0,76.3,73.0,98,85,60,29.99,29.89,3,0,7,0.01
2013-8-7,94.5,82.1,75.4,80.0,76.5,74.0,98,84,55,29.98,29.89,7,0,18,0.03
2013-8-8,92.8,81.0,74.5,79.0,76.0,74.0,99,86,58,30.04,29.94,7,1,22,0.80
2013-8-9,92.4,80.5,74.4,79.0,75.3,72.0,99,85,59,30.07,29.97,6,1,10,0.01
2013-8-10,93.8,82.5,71.3,79.0,74.6,71.0,99,79,51,30.13,30.04,9,2,13,0.01
2013-8-11,95.1,83.5,72.6,79.0,75.3,72.0,99,78,53,30.15,30.06,7,1,10,0.00
2013-8-12,94.6,82.7,72.9,79.0,74.3,71.0,98,77,48,30.14,30.00,6,1,10,0.00
2013-8-13,96.4,83.9,72.9,79.0,74.6,70.0,98,76,47,30.05,29.92,7,1,8,0.00
2013-8-14,95.1,81.1,75.3,82.0,76.3,73.0,99,87,57,30.02,29.91,8,1,10,0.92
2013-8-15,91.3,80.7,72.5,79.0,75.1,72.0,98,84,62,30.05,29.93,7,1,11,0.00
2013-8-16,94.2,83.1,75.0,79.0,76.5,73.0,96,81,52,30.07,29.96,4,1,9,0.34
2013-8-17,93.4,81.3,74.7,81.0,76.3,73.0,99,86,57,30.09,29.98,7,1,14,0.02
2013-8-18,90.9,79.4,74.0,79.0,75.7,72.0,98,89,64,30.12,30.01,8,1,16,0.12
2013-8-19,92.8,80.5,73.3,80.0,75.7,73.0,99,86,59,30.10,29.96,8,1,9,0.02
2013-8-20,93.6,79.3,73.1,80.0,74.6,72.0,98,87,55,30.10,29.98,8,1,17,0.80
2013-8-21,77.9,75.2,69.5,76.0,74.3,68.0,99,97,93,30.09,30.00,5,1,9,0.85
2013-8-22,91.9,79.3,73.5,80.0,75.5,71.0,97,89,62,30.08,29.98,18,1,20,1.05
2013-8-23,94.7,81.1,74.7,80.0,75.6,72.0,97,85,55,30.02,29.93,8,1,15,0.05
2013-8-24,92.8,79.4,72.5,79.0,74.4,71.0,97,85,59,30.12,30.00,10,1,16,0.09
2013-8-25,90.6,79.7,73.8,78.0,74.9,72.0,96,86,65,30.15,30.06,8,1,14,0.00
2013-8-26,88.8,77.9,72.6,77.0,74.0,70.0,97,88,66,30.15,30.00,8,1,16,1.35
2013-8-27,90.4,80.0,71.6,79.0,72.9,71.0,98,81,53,30.05,29.97,7,2,14,0.01
2013-8-28,92.0,78.9,69.5,75.0,70.7,67.0,96,78,46,30.05,29.98,6,1,15,0.00
2013-8-29,92.3,80.6,70.9,76.0,72.5,69.0,95,78,52,30.03,29.92,4,1,8,0.00
2013-8-30,92.3,80.9,72.7,78.0,74.4,71.0,97,82,57,29.98,29.90,6,1,12,0.00
2013-8-31,93.2,81.4,72.6,79.0,74.2,71.0,96,80,56,29.98,29.89,6,1,15,0.00
2013-9-1,95.0,79.7,71.3,78.0,73.2,70.0,95,81,55,30.00,29.89,6,1,12,0.00
2013-9-2,90.9,79.0,70.3,79.0,73.6,69.0,97,84,63,30.01,29.94,5,0,12,0.00
2013-9-3,89.1,79.0,71.5,80.0,74.2,70.0,97,85,67,30.01,29.93,7,1,11,0.04
2013-9-4,92.9,78.9,71.7,78.0,73.6,69.0,97,85,60,30.09,29.97,9,1,17,0.53
2013-9-5,94.0,79.9,72.3,80.0,73.9,69.0,95,83,54,30.09,29.98,5,1,12,0.10
2013-9-6,95.2,78.6,72.2,80.0,73.5,70.0,97,86,54,30.05,29.92,11,1,21,0.26
2013-9-7,89.9,77.8,70.3,77.0,72.5,69.0,97,85,54,30.02,29.92,9,1,13,0.01
2013-9-8,91.1,80.0,71.1,77.0,72.7,69.0,96,80,52,29.99,29.86,8,2,11,0.00
2013-9-9,92.5,81.1,71.3,77.0,72.8,69.0,96,78,51,30.04,29.93,8,1,13,0.00
2013-9-10,91.3,81.2,72.5,76.0,72.4,68.0,97,77,48,30.08,29.99,12,2,14,0.00
2013-9-11,91.5,81.6,73.3,76.0,73.4,71.0,94,77,53,30.08,29.98,8,2,14,0.00
2013-9-12,88.2,78.0,72.8,77.0,73.6,71.0,97,87,65,30.04,29.90,6,1,10,0.16
2013-9-13,92.8,78.9,70.0,76.0,72.6,69.0,98,82,56,29.92,29.80,5,1,8,0.01
2013-9-14,93.1,80.6,72.4,77.0,73.4,70.0,96,80,54,29.98,29.84,9,1,14,0.00
2013-9-15,93.2,77.0,70.7,79.0,73.0,69.0,97,88,57,30.08,29.97,12,1,21,1.14
2013-9-16,91.5,77.3,71.5,79.0,73.4,71.0,98,89,60,30.07,29.99,9,1,17,0.01
2013-9-17,90.7,77.6,71.0,77.0,73.2,70.0,97,87,63,30.05,29.94,6,1,17,0.25
2013-9-18,87.7,77.9,72.3,78.0,73.7,71.0,96,87,69,30.04,29.95,10,2,15,0.69
2013-9-19,89.3,79.2,71.2,77.0,73.5,70.0,97,83,60,30.04,29.96,7,2,11,0.01
2013-9-20,89.3,78.4,69.8,73.0,70.3,68.0,95,77,54,30.03,29.90,8,2,11,0.00
2013-9-21,90.6,78.4,68.3,75.0,70.3,67.0,97,78,49,29.96,29.77,6,1,9,0.00
2013-9-22,91.6,79.4,72.8,78.0,74.4,71.0,94,85,62,29.87,29.76,6,1,14,0.07
2013-9-23,84.0,76.0,72.0,79.0,74.0,71.0,96,93,84,29.97,29.84,7,1,9,0.91
2013-9-24,81.8,76.0,73.8,77.0,73.4,72.0,96,92,83,29.97,29.85,7,1,10,0.22
2013-9-25,81.5,75.1,71.3,75.0,71.9,69.0,94,90,78,29.90,29.79,6,1,12,0.39
2013-9-26,88.4,79.9,73.8,80.0,73.3,66.0,96,81,50,29.87,29.78,11,2,18,0.02
2013-9-27,83.6,75.3,70.2,74.0,70.3,68.0,92,85,70,29.96,29.86,8,1,16,0.00
2013-9-28,87.0,77.0,70.3,75.0,71.3,68.0,94,83,65,30.00,29.92,10,2,15,0.00
2013-9-29,88.3,77.8,69.2,73.0,69.4,67.0,92,77,53,29.99,29.89,6,1,8,0.00
2013-9-30,89.8,78.0,67.7,75.0,70.1,66.0,96,78,49,30.02,29.91,5,1,10,0.00
2013-10-1,90.7,79.0,69.2,75.0,71.4,68.0,96,79,51,30.07,29.95,8,1,11,0.00
2013-10-2,89.3,78.9,69.3,74.0,71.1,67.0,94,78,55,30.06,29.96,7,1,11,0.00
2013-10-3,89.7,79.4,68.6,74.0,71.0,67.0,94,77,53,30.07,29.97,8,1,11,0.00
2013-10-4,90.0,79.1,69.6,76.0,71.5,68.0,96,79,53,30.08,29.98,7,1,8,0.00
2013-10-5,91.1,78.9,69.0,76.0,71.4,68.0,96,79,55,30.07,29.95,7,1,10,0.00
2013-10-6,92.9,79.8,69.8,76.0,71.6,68.0,96,78,49,29.99,29.85,7,1,10,0.00
2013-10-7,86.4,76.6,72.2,79.0,73.2,70.0,94,89,76,29.88,29.74,8,1,17,0.79
2013-10-8,90.7,78.6,73.2,79.0,73.6,70.0,95,85,60,29.95,29.79,9,2,17,0.38
2013-10-9,79.8,73.5,67.2,72.0,68.8,65.0,91,85,72,30.04,29.93,8,3,10,0.00
2013-10-10,86.1,73.8,64.9,71.0,66.6,63.0,94,80,56,30.05,29.96,7,1,12,0.01
2013-10-11,86.2,73.9,62.4,70.0,65.0,61.0,97,76,50,30.05,29.94,1,0,2,0.00
2013-10-12,85.2,73.1,61.9,68.0,63.8,61.0,96,75,46,30.06,29.97,8,1,10,0.00
2013-10-13,86.1,73.1,61.6,70.0,63.2,60.0,96,74,45,30.08,29.98,5,1,9,0.00
2013-10-14,84.8,73.8,63.4,71.0,66.1,62.0,95,79,52,30.05,29.92,7,2,12,0.00
2013-10-15,77.4,71.0,66.3,71.0,67.9,65.0,96,90,78,30.01,29.90,8,2,9,0.00
2013-10-16,85.2,75.7,69.9,72.0,69.4,67.0,95,82,58,29.97,29.89,5,1,7,0.00
2013-10-17,89.0,77.0,65.7,74.0,69.2,65.0,97,78,54,29.98,29.89,4,0,6,0.00
2013-10-18,91.0,78.0,67.9,75.0,70.5,67.0,96,79,53,29.99,29.89,6,1,9,0.00
2013-10-19,91.4,78.6,69.2,74.0,71.5,68.0,96,81,54,29.96,29.86,6,1,9,0.00
2013-10-20,88.5,79.2,73.3,77.0,73.7,71.0,94,84,63,29.98,29.87,4,1,13,0.08
2013-10-21,89.4,78.9,70.7,78.0,72.8,69.0,95,82,62,29.99,29.90,4,1,10,0.00
2013-10-22,91.0,78.0,71.3,76.0,72.8,70.0,97,85,60,29.95,29.82,9,1,11,0.13
2013-10-23,80.9,72.9,67.0,71.0,64.8,54.0,96,77,47,30.02,29.81,10,3,14,0.00
2013-10-24,70.9,64.9,57.8,59.0,55.5,51.0,93,72,59,30.17,30.01,8,3,12,0.00
2013-10-25,80.4,66.6,56.7,61.0,55.9,53.0,94,72,42,30.24,30.14,6,2,11,0.00
2013-10-26,78.8,65.5,54.1,60.0,55.7,53.0,96,74,41,30.21,30.09,7,1,11,0.00
2013-10-27,80.5,64.3,51.4,61.0,55.5,50.0,97,76,40,30.14,30.05,6,1,10,0.00
2013-10-28,83.7,67.4,52.6,65.0,59.0,51.0,97,77,49,30.19,30.10,6,1,11,0.00
2013-10-29,86.1,71.1,60.3,69.0,63.7,59.0,97,79,49,30.22,30.12,9,2,12,0.01
2013-10-30,85.0,72.4,62.4,70.0,65.8,61.0,97,81,58,30.23,30.09,10,1,13,0.00
2013-10-31,87.4,73.5,60.6,71.0,65.1,60.0,98,78,46,30.14,29.98,9,1,16,0.00
2013-11-1,90.1,76.6,67.4,73.0,69.0,66.0,96,79,49,30.02,29.86,10,1,16,0.00
2013-11-2,77.0,70.0,63.8,74.0,67.4,61.0,96,91,81,29.98,29.82,9,2,15,0.17
2013-11-3,75.7,65.2,58.1,61.0,53.3,39.0,96,69,27,30.11,29.96,9,3,14,0.01
2013-11-4,78.7,68.0,57.0,65.0,59.7,53.0,93,76,54,30.16,30.09,11,4,19,0.00
2013-11-5,83.6,72.6,63.7,71.0,66.9,62.0,95,83,62,30.14,30.05,15,3,16,0.00
2013-11-6,85.4,74.2,65.6,70.0,66.9,64.0,95,79,56,30.11,30.01,10,2,12,0.00
2013-11-7,81.3,70.7,64.6,71.0,66.4,63.0,97,87,68,30.06,29.96,7,1,9,0.00
2013-11-8,77.1,68.8,63.0,66.0,63.2,60.0,95,83,64,30.12,30.00,11,4,14,0.01
2013-11-9,83.4,70.8,61.8,69.0,63.5,59.0,93,79,59,30.16,30.09,10,2,14,0.00
2013-11-10,83.2,71.4,62.7,70.0,64.4,61.0,94,80,57,30.16,30.07,10,1,10,0.00
2013-11-11,82.5,71.4,63.7,69.0,65.2,62.0,95,82,58,30.16,30.06,7,1,10,0.00
2013-11-12,79.1,69.8,61.2,70.0,65.2,60.0,98,86,66,30.11,29.99,5,1,9,0.01
2013-11-13,68.2,60.4,53.0,63.0,52.3,49.0,86,75,64,30.30,30.07,15,7,21,0.00
2013-11-14,76.8,62.1,49.3,59.0,54.1,47.0,94,77,51,30.30,30.18,8,2,17,0.00
2013-11-15,76.9,66.8,56.3,66.0,61.7,55.0,95,84,62,30.18,30.07,6,1,9,0.02
2013-11-16,73.7,69.5,67.3,71.0,67.6,64.0,96,93,88,30.13,30.03,6,1,11,0.21
2013-11-17,85.5,75.0,66.5,73.0,69.3,65.0,96,83,63,30.08,29.98,7,1,11,0.00
2013-11-18,85.1,74.4,65.5,73.0,69.1,64.0,97,84,66,30.03,29.91,7,1,12,0.00
2013-11-19,78.5,71.9,64.3,71.0,67.3,61.0,95,86,71,29.98,29.88,8,2,9,0.00
2013-11-20,83.6,70.7,61.3,73.0,66.5,60.0,95,87,68,30.10,29.97,10,2,13,0.00
2013-11-21,83.3,73.8,70.6,72.0,69.8,69.0,94,88,66,30.18,30.08,11,2,14,0.01
2013-11-22,82.6,73.6,64.5,72.0,68.3,62.0,95,84,66,30.19,30.09,7,1,12,0.01
2013-11-23,84.5,70.8,60.3,69.0,64.6,59.0,98,82,53,30.11,30.00,5,1,11,0.00
2013-11-24,70.0,64.4,58.1,65.0,59.4,53.0,94,84,73,30.23,30.02,13,5,19,0.00
2013-11-25,75.0,67.7,58.3,63.0,58.9,54.0,88,74,57,30.23,30.07,11,3,17,0.00
2013-11-26,82.8,73.4,66.2,73.0,69.4,63.0,96,87,70,30.06,29.76,13,3,20,0.40
2013-11-27,73.2,62.0,43.3,72.0,57.3,37.0,97,85,67,30.21,29.73,15,6,24,0.22
2013-11-28,64.2,50.2,37.2,52.0,43.2,32.0,89,77,63,30.34,30.21,9,4,13,0.00
2013-11-29,71.9,59.3,50.1,59.0,53.4,48.0,94,82,61,30.36,30.26,11,4,15,0.00
2013-11-30,75.1,63.4,52.8,65.0,58.8,51.0,96,86,68,30.31,30.17,11,3,13,0.00
2013-12-1,73.6,65.2,60.7,66.0,62.6,60.0,98,91,76,30.18,29.98,9,2,10,0.00
2013-12-2,70.2,64.5,60.3,62.0,58.7,54.0,97,82,63,29.98,29.84,8,2,9,0.00
2013-12-3,78.5,66.6,54.3,65.0,60.4,53.0,96,82,59,29.99,29.89,7,1,10,0.03
2013-12-4,82.8,69.9,60.9,71.0,64.7,60.0,97,85,60,30.09,29.97,5,0,8,0.01
2013-12-5,83.1,70.7,60.5,69.0,65.0,60.0,98,84,58,30.17,30.07,8,1,12,0.00
2013-12-6,85.5,72.8,62.0,72.0,67.1,61.0,97,83,59,30.18,30.08,11,2,14,0.00
2013-12-7,84.2,71.5,60.8,70.0,64.7,60.0,97,81,53,30.24,30.14,5,1,12,0.00
2013-12-8,84.5,71.6,62.0,72.0,66.0,61.0,98,84,55,30.23,30.09,7,1,15,0.01
2013-12-9,84.2,71.1,61.8,73.0,65.7,61.0,97,84,59,30.19,30.08,8,1,16,0.00
2013-12-10,84.4,73.2,62.5,72.0,65.7,61.0,97,79,54,30.17,30.07,7,1,10,0.00
2013-12-11,82.6,71.1,59.7,69.0,64.4,56.0,90,80,61,30.24,30.14,5,2,10,0.00
2013-12-12,70.3,61.9,46.2,64.0,52.0,31.0,95,73,39,30.31,30.19,11,4,15,0.00
2013-12-13,75.3,60.6,47.4,58.0,52.5,41.0,92,76,53,30.27,30.12,9,2,12,0.00
2013-12-14,83.4,70.4,57.6,71.0,64.7,56.0,97,83,63,30.11,29.94,8,2,18,0.00
2013-12-15,72.6,68.0,58.6,71.0,63.9,55.0,96,87,73,30.12,29.89,11,3,15,0.20
2013-12-16,65.0,55.6,42.1,55.0,47.8,39.0,90,76,54,30.24,30.11,10,3,10,0.00
2013-12-17,72.4,55.0,42.0,56.0,48.5,40.0,95,81,52,30.26,30.15,7,2,9,0.00
2013-12-18,70.0,54.3,41.5,47.0,43.8,40.0,95,71,40,30.29,30.20,8,2,11,0.00
2013-12-19,75.9,56.9,40.3,59.0,50.2,39.0,97,81,46,30.29,30.18,8,1,11,0.01
2013-12-20,83.1,66.5,50.6,68.0,60.2,50.0,98,82,58,30.21,30.10,11,2,13,0.00
2013-12-21,84.0,72.1,60.5,72.0,66.4,59.0,97,83,63,30.14,30.02,12,2,18,0.00
2013-12-22,86.3,74.2,65.0,73.0,68.6,64.0,97,84,61,30.14,30.06,9,2,18,0.00
2013-12-23,86.4,74.2,64.7,74.0,69.0,63.0,97,85,59,30.17,30.07,9,1,14,0.00
2013-12-24,71.9,63.4,49.9,70.0,53.6,37.0,94,73,37,30.26,30.10,11,4,17,0.01
2013-12-25,76.3,59.1,46.5,60.0,50.4,41.0,90,74,56,30.24,30.14,9,2,12,0.00
2013-12-26,77.9,64.9,56.2,64.0,59.0,54.0,95,82,58,30.21,30.09,7,2,11,0.00
2013-12-27,70.6,64.4,58.7,65.0,61.2,56.0,93,89,82,30.25,30.15,7,3,11,0.00
2013-12-28,78.9,71.0,64.3,70.0,66.6,62.0,96,86,70,30.21,30.01,11,2,14,0.00
2013-12-29,75.8,70.1,60.9,73.0,67.9,59.0,94,92,89,30.01,29.88,8,3,15,0.96
2013-12-30,62.3,60.1,56.7,60.0,58.1,55.0,95,93,88,30.20,30.00,6,2,11,0.00
2013-12-31,67.5,61.3,56.8,56.0,53.1,50.0,92,76,55,30.30,30.17,7,2,11,0.00
2014-1-1,64.8,60.8,58.0,63.0,58.3,53.0,95,91,78,30.25,30.06,8,3,11,0.09
2014-1-2,83.1,69.2,60.5,73.0,65.8,58.0,96,89,66,30.05,29.82,16,2,18,0.67